sensor_id;sensor_type;location;lat;lon;timestamp;temperature;humidity
5218;DHT22;26539;51.064;6.346;2023-06-01T00:00:31;17.60;99.90
5218;DHT22;26539;51.064;6.346;2023-06-01T00:02:56;17.60;99.90
5218;DHT22;26539;51.064;6.346;2023-06-01T00:05:22;17.50;99.90
5218;DHT22;26539;51.064;6.346;2023-06-01T00:07:47;17.50;99.90
5218;DHT22;26539;51.064;6.346;2023-06-01T00:10:13;17.40;99.90
5218;DHT22;26539;51.064;6.346;2023-06-01T00:12:39;17.40;99.90
5218;DHT22;26539;51.064;6.346;2023-06-01T00:15:06;17.40;99.90
5218;DHT22;26539;51.064;6.346;2023-06-01T00:17:32;17.30;99.90
5218;DHT22;26539;51.064;6.346;2023-06-01T00:19:57;17.30;99.90
5218;DHT22;26539;51.064;6.346;2023-06-01T00:22:29;17.30;99.90
5218;DHT22;26539;51.064;6.346;2023-06-01T00:24:59;17.20;99.90
5218;DHT22;26539;51.064;6.346;2023-06-01T00:27:25;17.10;99.90
5218;DHT22;26539;51.064;6.346;2023-06-01T00:29:50;17.10;99.90
5218;DHT22;26539;51.064;6.346;2023-06-01T00:32:16;17.00;99.90
5218;DHT22;26539;51.064;6.346;2023-06-01T00:34:42;17.00;99.90
5218;DHT22;26539;51.064;6.346;2023-06-01T00:37:07;17.00;99.90
5218;DHT22;26539;51.064;6.346;2023-06-01T00:39:33;16.90;99.90
5218;DHT22;26539;51.064;6.346;2023-06-01T00:41:58;16.90;99.90
5218;DHT22;26539;51.064;6.346;2023-06-01T00:44:24;16.80;99.90
5218;DHT22;26539;51.064;6.346;2023-06-01T00:46:50;16.80;1.00
5218;DHT22;26539;51.064;6.346;2023-06-01T00:49:16;16.70;1.00
5218;DHT22;26539;51.064;6.346;2023-06-01T00:51:41;16.70;1.00
5218;DHT22;26539;51.064;6.346;2023-06-01T00:54:07;16.60;1.00
5218;DHT22;26539;51.064;6.346;2023-06-01T00:56:33;16.60;1.00
5218;DHT22;26539;51.064;6.346;2023-06-01T00:59:00;16.60;1.00
5218;DHT22;26539;51.064;6.346;2023-06-01T01:01:26;16.60;1.00
5218;DHT22;26539;51.064;6.346;2023-06-01T01:03:52;16.50;1.00
5218;DHT22;26539;51.064;6.346;2023-06-01T01:06:56;16.50;1.00
5218;DHT22;26539;51.064;6.346;2023-06-01T01:09:47;16.50;1.00
5218;DHT22;26539;51.064;6.346;2023-06-01T01:12:21;16.40;1.00
5218;DHT22;26539;51.064;6.346;2023-06-01T01:17:47;16.40;1.00
5218;DHT22;26539;51.064;6.346;2023-06-01T01:20:24;16.30;1.00
5218;DHT22;26539;51.064;6.346;2023-06-01T01:23:14;16.30;1.00
5218;DHT22;26539;51.064;6.346;2023-06-01T01:28:36;16.20;1.00
5218;DHT22;26539;51.064;6.346;2023-06-01T01:31:04;16.10;1.00
5218;DHT22;26539;51.064;6.346;2023-06-01T01:33:32;16.10;1.00
5218;DHT22;26539;51.064;6.346;2023-06-01T01:35:59;16.10;1.00
5218;DHT22;26539;51.064;6.346;2023-06-01T01:38:25;16.10;1.00
5218;DHT22;26539;51.064;6.346;2023-06-01T01:40:51;16.00;1.00
5218;DHT22;26539;51.064;6.346;2023-06-01T01:43:18;16.00;4.70
5218;DHT22;26539;51.064;6.346;2023-06-01T01:45:51;15.90;24.80
5218;DHT22;26539;51.064;6.346;2023-06-01T01:48:50;15.90;40.30
5218;DHT22;26539;51.064;6.346;2023-06-01T01:51:24;15.80;97.30
5218;DHT22;26539;51.064;6.346;2023-06-01T01:53:54;15.80;99.90
5218;DHT22;26539;51.064;6.346;2023-06-01T01:56:21;15.70;99.90
5218;DHT22;26539;51.064;6.346;2023-06-01T01:58:48;15.70;99.90
5218;DHT22;26539;51.064;6.346;2023-06-01T02:01:15;15.60;99.90
5218;DHT22;26539;51.064;6.346;2023-06-01T02:03:41;15.60;99.90
5218;DHT22;26539;51.064;6.346;2023-06-01T02:06:06;15.50;99.90
5218;DHT22;26539;51.064;6.346;2023-06-01T02:08:32;15.50;99.90
5218;DHT22;26539;51.064;6.346;2023-06-01T02:10:58;15.50;99.90
5218;DHT22;26539;51.064;6.346;2023-06-01T02:13:23;15.40;99.90
5218;DHT22;26539;51.064;6.346;2023-06-01T02:15:49;15.40;99.90
5218;DHT22;26539;51.064;6.346;2023-06-01T02:18:15;15.40;99.90
5218;DHT22;26539;51.064;6.346;2023-06-01T02:20:43;15.30;99.90
5218;DHT22;26539;51.064;6.346;2023-06-01T02:23:09;15.30;99.90
5218;DHT22;26539;51.064;6.346;2023-06-01T02:25:34;15.30;99.90
5218;DHT22;26539;51.064;6.346;2023-06-01T02:28:00;15.20;99.90
5218;DHT22;26539;51.064;6.346;2023-06-01T02:30:27;15.20;99.90
5218;DHT22;26539;51.064;6.346;2023-06-01T02:32:52;15.10;99.90
5218;DHT22;26539;51.064;6.346;2023-06-01T02:35:18;15.10;1.00
5218;DHT22;26539;51.064;6.346;2023-06-01T02:37:43;15.00;1.00
5218;DHT22;26539;51.064;6.346;2023-06-01T02:40:09;15.00;1.00
5218;DHT22;26539;51.064;6.346;2023-06-01T02:42:38;14.90;1.00
5218;DHT22;26539;51.064;6.346;2023-06-01T02:45:05;14.90;1.00
5218;DHT22;26539;51.064;6.346;2023-06-01T02:47:32;14.90;1.00
5218;DHT22;26539;51.064;6.346;2023-06-01T02:49:58;14.80;1.00
5218;DHT22;26539;51.064;6.346;2023-06-01T02:52:24;14.80;1.00
5218;DHT22;26539;51.064;6.346;2023-06-01T02:54:49;14.70;1.00
5218;DHT22;26539;51.064;6.346;2023-06-01T02:57:15;14.70;36.10
5218;DHT22;26539;51.064;6.346;2023-06-01T02:59:41;14.60;93.60
5218;DHT22;26539;51.064;6.346;2023-06-01T03:02:06;14.60;99.90
5218;DHT22;26539;51.064;6.346;2023-06-01T03:04:32;14.50;99.90
5218;DHT22;26539;51.064;6.346;2023-06-01T03:06:58;14.50;99.90
5218;DHT22;26539;51.064;6.346;2023-06-01T03:09:24;14.50;99.90
5218;DHT22;26539;51.064;6.346;2023-06-01T03:11:50;14.40;99.90
5218;DHT22;26539;51.064;6.346;2023-06-01T03:14:16;14.40;99.90
5218;DHT22;26539;51.064;6.346;2023-06-01T03:16:41;14.30;99.90
5218;DHT22;26539;51.064;6.346;2023-06-01T03:19:07;14.30;99.90
5218;DHT22;26539;51.064;6.346;2023-06-01T03:21:32;14.30;99.90
5218;DHT22;26539;51.064;6.346;2023-06-01T03:23:58;14.20;1.00
5218;DHT22;26539;51.064;6.346;2023-06-01T03:26:23;14.20;1.00
5218;DHT22;26539;51.064;6.346;2023-06-01T03:28:50;14.20;1.00
5218;DHT22;26539;51.064;6.346;2023-06-01T03:31:15;14.10;1.00
5218;DHT22;26539;51.064;6.346;2023-06-01T03:33:42;14.10;1.00
5218;DHT22;26539;51.064;6.346;2023-06-01T03:36:07;14.10;1.00
5218;DHT22;26539;51.064;6.346;2023-06-01T03:38:33;14.10;1.00
5218;DHT22;26539;51.064;6.346;2023-06-01T03:41:01;14.00;1.00
5218;DHT22;26539;51.064;6.346;2023-06-01T03:43:27;14.00;1.00
5218;DHT22;26539;51.064;6.346;2023-06-01T03:45:52;14.00;1.00
5218;DHT22;26539;51.064;6.346;2023-06-01T03:48:18;14.00;1.00
5218;DHT22;26539;51.064;6.346;2023-06-01T03:50:44;14.00;1.00
5218;DHT22;26539;51.064;6.346;2023-06-01T03:53:10;14.00;1.00
5218;DHT22;26539;51.064;6.346;2023-06-01T03:55:35;14.10;1.00
5218;DHT22;26539;51.064;6.346;2023-06-01T03:58:01;14.10;1.00
5218;DHT22;26539;51.064;6.346;2023-06-01T04:00:28;14.10;1.00
5218;DHT22;26539;51.064;6.346;2023-06-01T04:02:55;14.10;1.00
5218;DHT22;26539;51.064;6.346;2023-06-01T04:05:23;14.20;1.00
5218;DHT22;26539;51.064;6.346;2023-06-01T04:07:51;14.20;1.00
5218;DHT22;26539;51.064;6.346;2023-06-01T04:10:18;14.20;1.00
5218;DHT22;26539;51.064;6.346;2023-06-01T04:12:45;14.20;1.00
5218;DHT22;26539;51.064;6.346;2023-06-01T04:15:12;14.20;1.00
5218;DHT22;26539;51.064;6.346;2023-06-01T04:17:39;14.30;1.00
5218;DHT22;26539;51.064;6.346;2023-06-01T04:20:08;14.30;1.00
5218;DHT22;26539;51.064;6.346;2023-06-01T04:22:38;14.30;1.00
5218;DHT22;26539;51.064;6.346;2023-06-01T04:25:09;14.30;1.00
5218;DHT22;26539;51.064;6.346;2023-06-01T04:27:35;14.30;1.00
5218;DHT22;26539;51.064;6.346;2023-06-01T04:30:06;14.30;1.00
5218;DHT22;26539;51.064;6.346;2023-06-01T04:32:35;14.30;1.00
5218;DHT22;26539;51.064;6.346;2023-06-01T04:35:04;14.30;1.00
5218;DHT22;26539;51.064;6.346;2023-06-01T04:37:32;14.30;1.00
5218;DHT22;26539;51.064;6.346;2023-06-01T04:39:59;14.40;1.00
5218;DHT22;26539;51.064;6.346;2023-06-01T04:42:25;14.40;1.00
5218;DHT22;26539;51.064;6.346;2023-06-01T04:44:51;14.50;1.00
5218;DHT22;26539;51.064;6.346;2023-06-01T04:47:16;14.60;1.00
5218;DHT22;26539;51.064;6.346;2023-06-01T04:49:43;14.60;1.00
5218;DHT22;26539;51.064;6.346;2023-06-01T04:52:09;14.70;99.90
5218;DHT22;26539;51.064;6.346;2023-06-01T04:54:37;14.70;99.90
5218;DHT22;26539;51.064;6.346;2023-06-01T04:57:03;14.80;99.90
5218;DHT22;26539;51.064;6.346;2023-06-01T04:59:31;14.80;99.90
5218;DHT22;26539;51.064;6.346;2023-06-01T05:01:57;14.80;99.90
5218;DHT22;26539;51.064;6.346;2023-06-01T05:04:23;14.80;24.20
5218;DHT22;26539;51.064;6.346;2023-06-01T05:06:48;14.80;10.30
5218;DHT22;26539;51.064;6.346;2023-06-01T05:09:14;14.80;1.00
5218;DHT22;26539;51.064;6.346;2023-06-01T05:11:39;14.80;1.00
5218;DHT22;26539;51.064;6.346;2023-06-01T05:14:06;14.80;1.00
5218;DHT22;26539;51.064;6.346;2023-06-01T05:16:33;14.80;1.00
5218;DHT22;26539;51.064;6.346;2023-06-01T05:18:58;14.80;1.00
5218;DHT22;26539;51.064;6.346;2023-06-01T05:21:24;14.80;1.00
5218;DHT22;26539;51.064;6.346;2023-06-01T05:23:49;14.80;1.00
5218;DHT22;26539;51.064;6.346;2023-06-01T05:26:15;14.70;1.00
5218;DHT22;26539;51.064;6.346;2023-06-01T05:28:40;14.90;1.00
5218;DHT22;26539;51.064;6.346;2023-06-01T05:31:08;15.00;1.00
5218;DHT22;26539;51.064;6.346;2023-06-01T05:33:33;15.00;1.00
5218;DHT22;26539;51.064;6.346;2023-06-01T05:35:59;15.20;99.90
5218;DHT22;26539;51.064;6.346;2023-06-01T05:38:25;15.30;99.90
5218;DHT22;26539;51.064;6.346;2023-06-01T05:40:50;15.30;99.90
5218;DHT22;26539;51.064;6.346;2023-06-01T05:43:16;15.30;99.90
5218;DHT22;26539;51.064;6.346;2023-06-01T05:45:41;15.40;99.90
5218;DHT22;26539;51.064;6.346;2023-06-01T05:48:07;15.50;48.30
5218;DHT22;26539;51.064;6.346;2023-06-01T05:50:33;15.60;13.30
5218;DHT22;26539;51.064;6.346;2023-06-01T05:52:58;15.70;1.00
5218;DHT22;26539;51.064;6.346;2023-06-01T05:55:24;15.80;1.00
5218;DHT22;26539;51.064;6.346;2023-06-01T05:57:49;15.80;1.00
5218;DHT22;26539;51.064;6.346;2023-06-01T06:00:15;15.90;1.00
5218;DHT22;26539;51.064;6.346;2023-06-01T06:02:45;16.00;1.00
5218;DHT22;26539;51.064;6.346;2023-06-01T06:05:10;16.10;1.00
5218;DHT22;26539;51.064;6.346;2023-06-01T06:07:36;16.20;1.00
5218;DHT22;26539;51.064;6.346;2023-06-01T06:10:03;16.40;1.00
5218;DHT22;26539;51.064;6.346;2023-06-01T06:12:28;16.60;1.00
5218;DHT22;26539;51.064;6.346;2023-06-01T06:14:54;16.70;99.90
5218;DHT22;26539;51.064;6.346;2023-06-01T06:17:19;16.70;99.90
5218;DHT22;26539;51.064;6.346;2023-06-01T06:19:45;16.70;99.90
5218;DHT22;26539;51.064;6.346;2023-06-01T06:22:13;16.70;99.90
5218;DHT22;26539;51.064;6.346;2023-06-01T06:24:41;16.90;99.90
5218;DHT22;26539;51.064;6.346;2023-06-01T06:27:08;17.20;99.90
5218;DHT22;26539;51.064;6.346;2023-06-01T06:29:36;17.30;99.90
5218;DHT22;26539;51.064;6.346;2023-06-01T06:32:02;17.40;99.90
5218;DHT22;26539;51.064;6.346;2023-06-01T06:34:28;17.50;99.90
5218;DHT22;26539;51.064;6.346;2023-06-01T06:37:06;17.50;99.90
5218;DHT22;26539;51.064;6.346;2023-06-01T06:39:32;17.60;99.90
5218;DHT22;26539;51.064;6.346;2023-06-01T06:41:59;17.80;99.90
5218;DHT22;26539;51.064;6.346;2023-06-01T06:44:26;18.00;99.90
5218;DHT22;26539;51.064;6.346;2023-06-01T06:46:52;18.30;99.90
5218;DHT22;26539;51.064;6.346;2023-06-01T06:49:17;18.70;99.90
5218;DHT22;26539;51.064;6.346;2023-06-01T06:51:43;19.00;99.90
5218;DHT22;26539;51.064;6.346;2023-06-01T06:54:09;19.80;99.90
5218;DHT22;26539;51.064;6.346;2023-06-01T06:56:35;21.70;99.90
5218;DHT22;26539;51.064;6.346;2023-06-01T06:59:00;21.80;99.90
5218;DHT22;26539;51.064;6.346;2023-06-01T07:01:26;21.90;99.90
5218;DHT22;26539;51.064;6.346;2023-06-01T07:03:52;22.30;99.90
5218;DHT22;26539;51.064;6.346;2023-06-01T07:06:18;22.40;99.90
5218;DHT22;26539;51.064;6.346;2023-06-01T07:08:44;22.70;99.90
5218;DHT22;26539;51.064;6.346;2023-06-01T07:11:10;23.40;99.90
5218;DHT22;26539;51.064;6.346;2023-06-01T07:13:35;24.20;99.90
5218;DHT22;26539;51.064;6.346;2023-06-01T07:16:02;25.30;99.90
5218;DHT22;26539;51.064;6.346;2023-06-01T07:18:27;27.20;99.90
5218;DHT22;26539;51.064;6.346;2023-06-01T07:20:53;29.70;99.90
5218;DHT22;26539;51.064;6.346;2023-06-01T07:23:18;30.70;99.90
5218;DHT22;26539;51.064;6.346;2023-06-01T07:25:44;34.00;99.90
5218;DHT22;26539;51.064;6.346;2023-06-01T07:28:09;35.10;99.90
5218;DHT22;26539;51.064;6.346;2023-06-01T07:30:35;35.40;99.90
5218;DHT22;26539;51.064;6.346;2023-06-01T07:33:03;34.70;99.90
5218;DHT22;26539;51.064;6.346;2023-06-01T07:35:29;34.70;96.70
5218;DHT22;26539;51.064;6.346;2023-06-01T07:37:54;34.40;91.10
5218;DHT22;26539;51.064;6.346;2023-06-01T07:40:21;39.00;93.70
5218;DHT22;26539;51.064;6.346;2023-06-01T07:42:47;43.10;91.60
5218;DHT22;26539;51.064;6.346;2023-06-01T07:45:12;45.10;80.70
5218;DHT22;26539;51.064;6.346;2023-06-01T07:47:38;46.80;72.30
5218;DHT22;26539;51.064;6.346;2023-06-01T07:50:04;48.00;58.80
5218;DHT22;26539;51.064;6.346;2023-06-01T07:52:30;48.90;51.60
5218;DHT22;26539;51.064;6.346;2023-06-01T07:54:56;49.90;45.20
5218;DHT22;26539;51.064;6.346;2023-06-01T07:57:28;50.50;38.10
5218;DHT22;26539;51.064;6.346;2023-06-01T07:59:53;51.00;30.90
5218;DHT22;26539;51.064;6.346;2023-06-01T08:02:19;51.20;26.20
5218;DHT22;26539;51.064;6.346;2023-06-01T08:04:45;51.70;22.70
5218;DHT22;26539;51.064;6.346;2023-06-01T08:07:12;52.10;19.10
5218;DHT22;26539;51.064;6.346;2023-06-01T08:09:39;52.20;15.50
5218;DHT22;26539;51.064;6.346;2023-06-01T08:12:05;52.40;12.70
5218;DHT22;26539;51.064;6.346;2023-06-01T08:14:31;52.70;10.30
5218;DHT22;26539;51.064;6.346;2023-06-01T08:17:00;53.20;8.20
5218;DHT22;26539;51.064;6.346;2023-06-01T08:19:27;53.40;6.10
5218;DHT22;26539;51.064;6.346;2023-06-01T08:21:52;53.60;5.20
5218;DHT22;26539;51.064;6.346;2023-06-01T08:24:18;53.20;2.40
5218;DHT22;26539;51.064;6.346;2023-06-01T08:26:48;53.10;1.00
5218;DHT22;26539;51.064;6.346;2023-06-01T08:29:13;53.00;1.00
5218;DHT22;26539;51.064;6.346;2023-06-01T08:31:39;52.80;1.00
5218;DHT22;26539;51.064;6.346;2023-06-01T08:34:05;52.60;1.00
5218;DHT22;26539;51.064;6.346;2023-06-01T08:36:30;52.30;1.00
5218;DHT22;26539;51.064;6.346;2023-06-01T08:38:56;52.40;1.00
5218;DHT22;26539;51.064;6.346;2023-06-01T08:41:32;52.50;1.00
5218;DHT22;26539;51.064;6.346;2023-06-01T08:44:03;52.40;1.00
5218;DHT22;26539;51.064;6.346;2023-06-01T08:46:31;52.70;1.00
5218;DHT22;26539;51.064;6.346;2023-06-01T08:48:58;53.00;1.00
5218;DHT22;26539;51.064;6.346;2023-06-01T08:51:25;53.10;1.00
5218;DHT22;26539;51.064;6.346;2023-06-01T08:53:52;52.60;1.00
5218;DHT22;26539;51.064;6.346;2023-06-01T08:56:19;52.40;1.00
5218;DHT22;26539;51.064;6.346;2023-06-01T08:58:47;52.30;1.00
5218;DHT22;26539;51.064;6.346;2023-06-01T09:01:17;52.20;1.00
5218;DHT22;26539;51.064;6.346;2023-06-01T09:03:47;52.00;1.00
5218;DHT22;26539;51.064;6.346;2023-06-01T09:06:13;51.60;1.00
5218;DHT22;26539;51.064;6.346;2023-06-01T09:08:38;51.50;1.00
5218;DHT22;26539;51.064;6.346;2023-06-01T09:11:04;51.30;1.00
5218;DHT22;26539;51.064;6.346;2023-06-01T09:13:37;50.80;1.00
5218;DHT22;26539;51.064;6.346;2023-06-01T09:16:03;50.20;1.00
5218;DHT22;26539;51.064;6.346;2023-06-01T09:18:29;49.90;1.00
5218;DHT22;26539;51.064;6.346;2023-06-01T09:21:10;49.80;1.00
5218;DHT22;26539;51.064;6.346;2023-06-01T09:23:36;49.90;1.00
5218;DHT22;26539;51.064;6.346;2023-06-01T09:26:07;49.90;1.00
5218;DHT22;26539;51.064;6.346;2023-06-01T09:31:41;49.40;1.00
5218;DHT22;26539;51.064;6.346;2023-06-01T09:34:08;49.20;1.00
5218;DHT22;26539;51.064;6.346;2023-06-01T09:36:36;49.00;1.00
5218;DHT22;26539;51.064;6.346;2023-06-01T09:39:04;48.90;1.00
5218;DHT22;26539;51.064;6.346;2023-06-01T09:41:45;48.80;1.00
5218;DHT22;26539;51.064;6.346;2023-06-01T09:44:12;48.90;1.00
5218;DHT22;26539;51.064;6.346;2023-06-01T09:46:51;49.00;1.00
5218;DHT22;26539;51.064;6.346;2023-06-01T09:51:51;48.70;1.00
5218;DHT22;26539;51.064;6.346;2023-06-01T09:54:28;48.40;1.00
5218;DHT22;26539;51.064;6.346;2023-06-01T09:56:55;48.30;1.00
5218;DHT22;26539;51.064;6.346;2023-06-01T09:59:22;47.90;1.00
5218;DHT22;26539;51.064;6.346;2023-06-01T10:01:50;47.40;1.00
5218;DHT22;26539;51.064;6.346;2023-06-01T10:04:22;47.10;1.00
5218;DHT22;26539;51.064;6.346;2023-06-01T10:06:49;47.10;1.00
5218;DHT22;26539;51.064;6.346;2023-06-01T10:09:19;46.90;1.00
5218;DHT22;26539;51.064;6.346;2023-06-01T10:11:49;46.90;1.00
5218;DHT22;26539;51.064;6.346;2023-06-01T10:14:16;46.70;1.00
5218;DHT22;26539;51.064;6.346;2023-06-01T10:16:42;46.70;1.00
5218;DHT22;26539;51.064;6.346;2023-06-01T10:19:10;46.30;1.00
5218;DHT22;26539;51.064;6.346;2023-06-01T10:21:36;45.90;1.00
5218;DHT22;26539;51.064;6.346;2023-06-01T10:24:05;45.60;1.00
5218;DHT22;26539;51.064;6.346;2023-06-01T10:26:35;45.40;1.00
5218;DHT22;26539;51.064;6.346;2023-06-01T10:29:01;45.10;1.00
5218;DHT22;26539;51.064;6.346;2023-06-01T10:31:40;44.90;1.00
5218;DHT22;26539;51.064;6.346;2023-06-01T10:34:08;44.70;1.00
5218;DHT22;26539;51.064;6.346;2023-06-01T10:39:31;44.60;1.00
5218;DHT22;26539;51.064;6.346;2023-06-01T10:41:58;44.40;1.00
5218;DHT22;26539;51.064;6.346;2023-06-01T10:44:46;44.40;1.00
5218;DHT22;26539;51.064;6.346;2023-06-01T10:52:28;44.10;1.00
5218;DHT22;26539;51.064;6.346;2023-06-01T10:54:55;44.10;1.00
5218;DHT22;26539;51.064;6.346;2023-06-01T10:57:22;43.90;1.00
5218;DHT22;26539;51.064;6.346;2023-06-01T11:05:48;43.50;1.00
5218;DHT22;26539;51.064;6.346;2023-06-01T11:13:36;43.30;1.00
5218;DHT22;26539;51.064;6.346;2023-06-01T11:19:04;42.70;1.00
5218;DHT22;26539;51.064;6.346;2023-06-01T11:21:42;42.40;1.00
5218;DHT22;26539;51.064;6.346;2023-06-01T11:24:16;41.90;1.00
5218;DHT22;26539;51.064;6.346;2023-06-01T11:26:47;41.70;1.00
5218;DHT22;26539;51.064;6.346;2023-06-01T11:29:25;41.60;1.00
5218;DHT22;26539;51.064;6.346;2023-06-01T11:31:56;41.60;1.00
5218;DHT22;26539;51.064;6.346;2023-06-01T11:34:38;41.30;1.00
5218;DHT22;26539;51.064;6.346;2023-06-01T11:37:15;41.00;1.00
5218;DHT22;26539;51.064;6.346;2023-06-01T11:39:42;41.10;1.00
5218;DHT22;26539;51.064;6.346;2023-06-01T11:42:19;41.10;1.00
5218;DHT22;26539;51.064;6.346;2023-06-01T11:45:00;40.90;1.00
5218;DHT22;26539;51.064;6.346;2023-06-01T11:47:29;41.00;1.00
5218;DHT22;26539;51.064;6.346;2023-06-01T11:49:56;40.90;1.00
5218;DHT22;26539;51.064;6.346;2023-06-01T11:52:21;40.90;1.00
5218;DHT22;26539;51.064;6.346;2023-06-01T11:54:47;40.90;1.00
5218;DHT22;26539;51.064;6.346;2023-06-01T11:57:13;40.80;1.00
5218;DHT22;26539;51.064;6.346;2023-06-01T11:59:45;40.70;1.00
5218;DHT22;26539;51.064;6.346;2023-06-01T12:02:21;40.30;1.00
5218;DHT22;26539;51.064;6.346;2023-06-01T12:07:22;40.00;1.00
5218;DHT22;26539;51.064;6.346;2023-06-01T12:09:50;39.90;1.00
5218;DHT22;26539;51.064;6.346;2023-06-01T12:12:16;39.80;1.00
5218;DHT22;26539;51.064;6.346;2023-06-01T12:14:42;39.20;1.00
5218;DHT22;26539;51.064;6.346;2023-06-01T12:17:08;38.80;1.00
5218;DHT22;26539;51.064;6.346;2023-06-01T12:19:47;38.80;1.00
5218;DHT22;26539;51.064;6.346;2023-06-01T12:22:14;38.90;1.00
5218;DHT22;26539;51.064;6.346;2023-06-01T12:24:40;38.90;1.00
5218;DHT22;26539;51.064;6.346;2023-06-01T12:27:13;38.80;1.00
5218;DHT22;26539;51.064;6.346;2023-06-01T12:29:44;38.90;1.00
5218;DHT22;26539;51.064;6.346;2023-06-01T12:32:11;38.90;1.00
5218;DHT22;26539;51.064;6.346;2023-06-01T12:35:02;38.70;1.00
5218;DHT22;26539;51.064;6.346;2023-06-01T12:37:28;38.60;1.00
5218;DHT22;26539;51.064;6.346;2023-06-01T12:39:55;38.40;1.00
5218;DHT22;26539;51.064;6.346;2023-06-01T12:42:38;38.20;1.00
5218;DHT22;26539;51.064;6.346;2023-06-01T12:45:08;38.00;1.00
5218;DHT22;26539;51.064;6.346;2023-06-01T12:47:37;37.70;1.00
5218;DHT22;26539;51.064;6.346;2023-06-01T12:50:12;37.40;1.00
5218;DHT22;26539;51.064;6.346;2023-06-01T12:52:40;37.20;1.00
5218;DHT22;26539;51.064;6.346;2023-06-01T12:55:06;37.00;1.00
5218;DHT22;26539;51.064;6.346;2023-06-01T12:57:33;36.90;1.00
5218;DHT22;26539;51.064;6.346;2023-06-01T12:59:59;36.50;1.00
5218;DHT22;26539;51.064;6.346;2023-06-01T13:02:25;36.30;1.00
5218;DHT22;26539;51.064;6.346;2023-06-01T13:04:51;36.20;1.00
5218;DHT22;26539;51.064;6.346;2023-06-01T13:07:18;36.20;1.00
5218;DHT22;26539;51.064;6.346;2023-06-01T13:09:44;35.90;1.00
5218;DHT22;26539;51.064;6.346;2023-06-01T13:12:10;35.80;1.00
5218;DHT22;26539;51.064;6.346;2023-06-01T13:14:43;35.70;1.00
5218;DHT22;26539;51.064;6.346;2023-06-01T13:17:11;35.60;1.00
5218;DHT22;26539;51.064;6.346;2023-06-01T13:19:37;35.50;1.00
5218;DHT22;26539;51.064;6.346;2023-06-01T13:22:03;35.40;1.00
5218;DHT22;26539;51.064;6.346;2023-06-01T13:41:56;34.10;1.00
5218;DHT22;26539;51.064;6.346;2023-06-01T13:47:24;33.40;1.00
5218;DHT22;26539;51.064;6.346;2023-06-01T13:50:22;33.30;1.00
5218;DHT22;26539;51.064;6.346;2023-06-01T13:53:54;33.00;1.00
5218;DHT22;26539;51.064;6.346;2023-06-01T14:00:18;32.10;1.00
5218;DHT22;26539;51.064;6.346;2023-06-01T14:03:28;31.50;1.00
5218;DHT22;26539;51.064;6.346;2023-06-01T14:06:10;31.10;1.00
5218;DHT22;26539;51.064;6.346;2023-06-01T14:09:30;30.90;1.00
5218;DHT22;26539;51.064;6.346;2023-06-01T14:16:19;30.30;1.00
5218;DHT22;26539;51.064;6.346;2023-06-01T14:18:48;30.00;1.00
5218;DHT22;26539;51.064;6.346;2023-06-01T14:24:44;29.90;1.00
5218;DHT22;26539;51.064;6.346;2023-06-01T14:27:12;29.90;1.00
5218;DHT22;26539;51.064;6.346;2023-06-01T14:29:57;29.70;1.00
5218;DHT22;26539;51.064;6.346;2023-06-01T14:32:46;29.60;1.00
5218;DHT22;26539;51.064;6.346;2023-06-01T14:35:30;29.50;1.00
5218;DHT22;26539;51.064;6.346;2023-06-01T14:38:08;29.30;1.00
5218;DHT22;26539;51.064;6.346;2023-06-01T14:40:45;29.20;1.00
5218;DHT22;26539;51.064;6.346;2023-06-01T14:43:23;29.20;1.00
5218;DHT22;26539;51.064;6.346;2023-06-01T14:45:59;29.10;1.00
5218;DHT22;26539;51.064;6.346;2023-06-01T14:55:08;28.80;1.00
5218;DHT22;26539;51.064;6.346;2023-06-01T14:57:36;28.80;1.00
5218;DHT22;26539;51.064;6.346;2023-06-01T15:00:07;28.80;1.00
5218;DHT22;26539;51.064;6.346;2023-06-01T15:05:38;28.70;1.00
5218;DHT22;26539;51.064;6.346;2023-06-01T15:08:53;28.70;1.00
5218;DHT22;26539;51.064;6.346;2023-06-01T15:14:42;28.60;1.00
5218;DHT22;26539;51.064;6.346;2023-06-01T15:17:31;28.50;1.00
5218;DHT22;26539;51.064;6.346;2023-06-01T15:23:33;28.40;2.50
5218;DHT22;26539;51.064;6.346;2023-06-01T15:26:04;28.30;1.00
5218;DHT22;26539;51.064;6.346;2023-06-01T15:29:10;28.30;1.00
5218;DHT22;26539;51.064;6.346;2023-06-01T15:31:59;28.30;1.00
5218;DHT22;26539;51.064;6.346;2023-06-01T15:34:34;28.20;1.00
5218;DHT22;26539;51.064;6.346;2023-06-01T15:37:11;28.20;1.00
5218;DHT22;26539;51.064;6.346;2023-06-01T15:40:13;28.20;1.00
5218;DHT22;26539;51.064;6.346;2023-06-01T15:45:40;28.10;1.00
5218;DHT22;26539;51.064;6.346;2023-06-01T15:48:06;28.00;1.00
5218;DHT22;26539;51.064;6.346;2023-06-01T15:50:47;27.80;1.00
5218;DHT22;26539;51.064;6.346;2023-06-01T15:53:43;27.80;1.00
5218;DHT22;26539;51.064;6.346;2023-06-01T16:02:50;28.00;1.00
5218;DHT22;26539;51.064;6.346;2023-06-01T16:05:49;28.00;1.00
5218;DHT22;26539;51.064;6.346;2023-06-01T16:11:59;28.10;1.00
5218;DHT22;26539;51.064;6.346;2023-06-01T16:14:52;28.10;1.00
5218;DHT22;26539;51.064;6.346;2023-06-01T16:21:03;27.90;1.00
5218;DHT22;26539;51.064;6.346;2023-06-01T16:24:15;28.00;1.00
5218;DHT22;26539;51.064;6.346;2023-06-01T16:30:20;28.10;1.00
5218;DHT22;26539;51.064;6.346;2023-06-01T16:46:26;27.90;1.00
5218;DHT22;26539;51.064;6.346;2023-06-01T16:52:48;27.60;1.00
5218;DHT22;26539;51.064;6.346;2023-06-01T16:56:27;27.50;1.00
5218;DHT22;26539;51.064;6.346;2023-06-01T17:12:51;26.90;1.00
5218;DHT22;26539;51.064;6.346;2023-06-01T17:16:08;26.80;1.00
5218;DHT22;26539;51.064;6.346;2023-06-01T17:22:54;26.50;1.00
5218;DHT22;26539;51.064;6.346;2023-06-01T17:26:15;26.40;1.00
5218;DHT22;26539;51.064;6.346;2023-06-01T17:29:24;26.30;1.00
5218;DHT22;26539;51.064;6.346;2023-06-01T17:31:55;26.10;1.00
5218;DHT22;26539;51.064;6.346;2023-06-01T17:35:15;26.00;1.00
5218;DHT22;26539;51.064;6.346;2023-06-01T17:38:25;25.80;9.20
5218;DHT22;26539;51.064;6.346;2023-06-01T17:44:46;25.50;1.00
5218;DHT22;26539;51.064;6.346;2023-06-01T17:54:19;25.20;2.50
5218;DHT22;26539;51.064;6.346;2023-06-01T18:01:06;24.90;3.80
5218;DHT22;26539;51.064;6.346;2023-06-01T18:10:32;24.40;5.20
5218;DHT22;26539;51.064;6.346;2023-06-01T18:13:17;24.20;6.00
5218;DHT22;26539;51.064;6.346;2023-06-01T18:26:01;23.40;8.00
5218;DHT22;26539;51.064;6.346;2023-06-01T18:29:25;23.20;8.70
5218;DHT22;26539;51.064;6.346;2023-06-01T18:33:21;23.00;9.50
5218;DHT22;26539;51.064;6.346;2023-06-01T18:39:07;22.50;10.30
5218;DHT22;26539;51.064;6.346;2023-06-01T18:51:32;21.80;13.20
5218;DHT22;26539;51.064;6.346;2023-06-01T19:01:30;21.20;15.00
5218;DHT22;26539;51.064;6.346;2023-06-01T19:31:24;19.60;18.90
5218;DHT22;26539;51.064;6.346;2023-06-01T19:38:00;19.40;21.00
5218;DHT22;26539;51.064;6.346;2023-06-01T19:40:49;19.20;21.80
5218;DHT22;26539;51.064;6.346;2023-06-01T19:44:03;19.10;22.70
5218;DHT22;26539;51.064;6.346;2023-06-01T19:46:32;19.00;23.20
5218;DHT22;26539;51.064;6.346;2023-06-01T19:49:12;18.90;25.00
5218;DHT22;26539;51.064;6.346;2023-06-01T19:52:02;18.80;25.60
5218;DHT22;26539;51.064;6.346;2023-06-01T19:54:50;18.70;26.40
5218;DHT22;26539;51.064;6.346;2023-06-01T20:05:11;18.40;32.80
5218;DHT22;26539;51.064;6.346;2023-06-01T20:07:42;18.30;35.80
5218;DHT22;26539;51.064;6.346;2023-06-01T20:10:22;18.20;38.70
5218;DHT22;26539;51.064;6.346;2023-06-01T20:12:47;18.10;40.80
5218;DHT22;26539;51.064;6.346;2023-06-01T20:15:13;18.10;42.10